OVO1032 ZSPD-ZJHK
Flight info
| Callsign | OVO1032 |
|---|---|
| Flight time | N/A |
| Altitude | 32100 |
| Route | NXD W131 AKDIM A470 DUBGO W134 ELNEX A599 PLT W19 NOMAR W18 NLG W23 ZUH R200 BIGRO G221 GIVIV W605 DOMGO |
| Aircraft | A359/H-SDE2E3GHIJ1J3J4J5LM1ORWXYZ/LB1D1 |
Departure
| Time | 2026-05-05 06:37 |
|---|---|
| Airport | Shanghai Pudong International Airport (ZSPD) |
Arrival
| Time | N/A |
|---|---|
| Airport | Haikou Meilan International Airport (ZJHK) |
| Time | Latitude | Longitude | Altitude | Speed | Heading |
|---|---|---|---|---|---|
| 2026-05-05 05:59 | 31.13796 | 121.80142 | 29 ft | 0 kts | 72° |
| 2026-05-05 06:22 | 31.13788 | 121.80119 | 45 ft | 4 kts | 66° |
| 2026-05-05 06:23 | 31.13776 | 121.80091 | 45 ft | 4 kts | 56° |
| 2026-05-05 06:23 | 31.13760 | 121.80067 | 27 ft | 4 kts | 36° |
| 2026-05-05 06:23 | 31.13738 | 121.80056 | 27 ft | 3 kts | 348° |
| 2026-05-05 06:23 | 31.13734 | 121.80057 | 28 ft | 4 kts | 342° |
| 2026-05-05 06:27 | 31.13750 | 121.80051 | 29 ft | 6 kts | 342° |
| 2026-05-05 06:28 | 31.13792 | 121.80009 | 29 ft | 10 kts | 283° |
| 2026-05-05 06:28 | 31.13770 | 121.79905 | 29 ft | 16 kts | 251° |
| 2026-05-05 06:28 | 31.13736 | 121.79776 | 29 ft | 17 kts | 264° |
| 2026-05-05 06:28 | 31.13806 | 121.79692 | 29 ft | 16 kts | 342° |
| 2026-05-05 06:29 | 31.13922 | 121.79650 | 29 ft | 19 kts | 342° |
| 2026-05-05 06:29 | 31.14053 | 121.79603 | 29 ft | 21 kts | 342° |
| 2026-05-05 06:29 | 31.14177 | 121.79556 | 29 ft | 19 kts | 342° |
| 2026-05-05 06:29 | 31.14302 | 121.79507 | 29 ft | 18 kts | 339° |
| 2026-05-05 06:30 | 31.14431 | 121.79455 | 29 ft | 21 kts | 342° |
| 2026-05-05 06:30 | 31.14571 | 121.79403 | 29 ft | 22 kts | 342° |
| 2026-05-05 06:30 | 31.14686 | 121.79360 | 30 ft | 19 kts | 342° |
| 2026-05-05 06:30 | 31.14818 | 121.79311 | 30 ft | 18 kts | 342° |
| 2026-05-05 06:31 | 31.14940 | 121.79266 | 30 ft | 19 kts | 342° |
| 2026-05-05 06:31 | 31.15075 | 121.79216 | 29 ft | 22 kts | 342° |
| 2026-05-05 06:31 | 31.15211 | 121.79163 | 29 ft | 16 kts | 342° |
| 2026-05-05 06:31 | 31.15322 | 121.79121 | 29 ft | 18 kts | 342° |
| 2026-05-05 06:32 | 31.15451 | 121.79073 | 28 ft | 21 kts | 342° |
| 2026-05-05 06:32 | 31.15592 | 121.79020 | 29 ft | 22 kts | 342° |
| 2026-05-05 06:32 | 31.15744 | 121.78963 | 28 ft | 24 kts | 342° |
| 2026-05-05 06:32 | 31.15866 | 121.78917 | 29 ft | 17 kts | 341° |
| 2026-05-05 06:33 | 31.15987 | 121.78871 | 29 ft | 20 kts | 342° |
| 2026-05-05 06:33 | 31.16103 | 121.78827 | 29 ft | 14 kts | 340° |
| 2026-05-05 06:33 | 31.16131 | 121.78808 | 29 ft | 4 kts | 321° |
| 2026-05-05 06:33 | 31.16148 | 121.78768 | 29 ft | 7 kts | 277° |
| 2026-05-05 06:34 | 31.16143 | 121.78733 | 29 ft | 0 kts | 253° |
| 2026-05-05 06:35 | 31.16139 | 121.78718 | 29 ft | 7 kts | 253° |
| 2026-05-05 06:35 | 31.16091 | 121.78634 | 29 ft | 17 kts | 204° |
| 2026-05-05 06:35 | 31.15976 | 121.78654 | 28 ft | 0 kts | 162° |
| 2026-05-05 06:36 | 31.15928 | 121.78672 | 28 ft | 33 kts | 162° |
| 2026-05-05 06:36 | 31.15464 | 121.78848 | 28 ft | 105 kts | 161° |
| 2026-05-05 06:36 | 31.14567 | 121.79183 | 56 ft | 162 kts | 163° |
| 2026-05-05 06:36 | 31.13401 | 121.79608 | 475 ft | 186 kts | 162° |
| 2026-05-05 06:37 | 31.12148 | 121.80092 | 1381 ft | 190 kts | 162° |
| 2026-05-05 06:37 | 31.10884 | 121.80552 | 2223 ft | 191 kts | 166° |
| 2026-05-05 06:37 | 31.09543 | 121.80992 | 2756 ft | 209 kts | 167° |
| 2026-05-05 06:37 | 31.08058 | 121.81458 | 2966 ft | 232 kts | 168° |
| 2026-05-05 06:38 | 31.06433 | 121.81976 | 3175 ft | 254 kts | 165° |
| 2026-05-05 06:38 | 31.04684 | 121.82575 | 3745 ft | 269 kts | 166° |
| 2026-05-05 06:38 | 31.02890 | 121.83150 | 4727 ft | 264 kts | 168° |
| 2026-05-05 06:38 | 31.01078 | 121.83199 | 5456 ft | 262 kts | 193° |
| 2026-05-05 06:39 | 30.99454 | 121.82250 | 5830 ft | 266 kts | 221° |
| 2026-05-05 06:39 | 30.98417 | 121.80481 | 5921 ft | 268 kts | 248° |
| 2026-05-05 06:39 | 30.97823 | 121.78406 | 5904 ft | 271 kts | 252° |
| 2026-05-05 06:39 | 30.97282 | 121.76298 | 5904 ft | 272 kts | 252° |
| 2026-05-05 06:40 | 30.96733 | 121.74199 | 5908 ft | 271 kts | 251° |
| 2026-05-05 06:40 | 30.96305 | 121.72049 | 5910 ft | 273 kts | 263° |
| 2026-05-05 06:40 | 30.96474 | 121.69861 | 6088 ft | 273 kts | 280° |
| 2026-05-05 06:40 | 30.96880 | 121.67683 | 6650 ft | 277 kts | 282° |
| 2026-05-05 06:41 | 30.97301 | 121.65495 | 7640 ft | 277 kts | 282° |
| 2026-05-05 06:41 | 30.97718 | 121.63301 | 8660 ft | 278 kts | 282° |
| 2026-05-05 06:41 | 30.98133 | 121.61098 | 9683 ft | 279 kts | 282° |
| 2026-05-05 06:41 | 30.98548 | 121.58874 | 10522 ft | 286 kts | 282° |
| 2026-05-05 06:42 | 30.98984 | 121.56523 | 10933 ft | 308 kts | 282° |
| 2026-05-05 06:42 | 30.99450 | 121.53996 | 11324 ft | 329 kts | 282° |
| 2026-05-05 06:42 | 30.99939 | 121.51340 | 11878 ft | 341 kts | 282° |
| 2026-05-05 06:42 | 31.00446 | 121.48585 | 12442 ft | 352 kts | 282° |
| 2026-05-05 06:43 | 31.00961 | 121.45787 | 13277 ft | 356 kts | 282° |
| 2026-05-05 06:43 | 31.01486 | 121.42944 | 14040 ft | 359 kts | 282° |
| 2026-05-05 06:43 | 31.02011 | 121.40085 | 14768 ft | 362 kts | 282° |
| 2026-05-05 06:43 | 31.02541 | 121.37194 | 15468 ft | 367 kts | 281° |
| 2026-05-05 06:44 | 31.03076 | 121.34273 | 16193 ft | 371 kts | 281° |
| 2026-05-05 06:44 | 31.03614 | 121.31332 | 16917 ft | 375 kts | 281° |
| 2026-05-05 06:44 | 31.04163 | 121.28332 | 17638 ft | 379 kts | 281° |
| 2026-05-05 06:44 | 31.04715 | 121.25307 | 18350 ft | 383 kts | 281° |
| 2026-05-05 06:45 | 31.05273 | 121.22244 | 18975 ft | 387 kts | 281° |
| 2026-05-05 06:45 | 31.05835 | 121.19162 | 19637 ft | 390 kts | 281° |
| 2026-05-05 06:45 | 31.06398 | 121.16058 | 20313 ft | 394 kts | 281° |
| 2026-05-05 06:45 | 31.06714 | 121.12874 | 20973 ft | 396 kts | 269° |
| 2026-05-05 06:46 | 31.06332 | 121.09691 | 21681 ft | 399 kts | 256° |
| 2026-05-05 06:46 | 31.05585 | 121.06556 | 22378 ft | 402 kts | 254° |
| 2026-05-05 06:46 | 31.04792 | 121.03411 | 23058 ft | 406 kts | 254° |
| 2026-05-05 06:46 | 31.04005 | 121.00280 | 23706 ft | 410 kts | 254° |
| 2026-05-05 06:47 | 31.03207 | 120.97087 | 24314 ft | 412 kts | 254° |
| 2026-05-05 06:47 | 31.02408 | 120.93884 | 24925 ft | 414 kts | 254° |
| 2026-05-05 06:47 | 31.01603 | 120.90651 | 25479 ft | 417 kts | 254° |
| 2026-05-05 06:47 | 31.00792 | 120.87391 | 26100 ft | 418 kts | 254° |
| 2026-05-05 06:48 | 30.99985 | 120.84146 | 26710 ft | 419 kts | 253° |
| 2026-05-05 06:48 | 30.99175 | 120.80895 | 27462 ft | 417 kts | 253° |
| 2026-05-05 06:48 | 30.98360 | 120.77631 | 28089 ft | 419 kts | 253° |
| 2026-05-05 06:48 | 30.97548 | 120.74377 | 28672 ft | 421 kts | 253° |
| 2026-05-05 06:49 | 30.96727 | 120.71094 | 29240 ft | 423 kts | 253° |
| 2026-05-05 06:49 | 30.95900 | 120.67789 | 29789 ft | 425 kts | 253° |
| 2026-05-05 06:49 | 30.95067 | 120.64467 | 30274 ft | 428 kts | 253° |
| 2026-05-05 06:49 | 30.94231 | 120.61135 | 30649 ft | 431 kts | 253° |
| 2026-05-05 06:50 | 30.93386 | 120.57771 | 31032 ft | 433 kts | 253° |
| 2026-05-05 06:50 | 30.92539 | 120.54400 | 31426 ft | 436 kts | 253° |
| 2026-05-05 06:50 | 30.91678 | 120.51009 | 31785 ft | 438 kts | 252° |
| 2026-05-05 06:50 | 30.90626 | 120.47671 | 32047 ft | 441 kts | 246° |
| 2026-05-05 06:51 | 30.89183 | 120.44552 | 32095 ft | 435 kts | 238° |
| 2026-05-05 06:51 | 30.85157 | 120.39326 | 32103 ft | 437 kts | 223° |
| 2026-05-05 06:52 | 30.80275 | 120.35066 | 32090 ft | 441 kts | 219° |
| 2026-05-05 06:52 | 30.75215 | 120.31003 | 32096 ft | 442 kts | 218° |
| 2026-05-05 06:53 | 30.70165 | 120.26938 | 32090 ft | 442 kts | 219° |
| 2026-05-05 06:53 | 30.65129 | 120.22831 | 32085 ft | 441 kts | 219° |
| 2026-05-05 06:54 | 30.60128 | 120.18732 | 32094 ft | 439 kts | 219° |
| 2026-05-05 06:54 | 30.55136 | 120.14642 | 32094 ft | 439 kts | 219° |
| 2026-05-05 06:55 | 30.50141 | 120.10557 | 32101 ft | 440 kts | 219° |
| 2026-05-05 06:55 | 30.45124 | 120.06462 | 32085 ft | 442 kts | 219° |
| 2026-05-05 06:56 | 30.39914 | 120.02743 | 32088 ft | 443 kts | 214° |
| 2026-05-05 06:56 | 30.34572 | 119.99167 | 32088 ft | 443 kts | 214° |
| 2026-05-05 06:57 | 30.29219 | 119.95620 | 32087 ft | 444 kts | 214° |
| 2026-05-05 06:57 | 30.23857 | 119.92064 | 32087 ft | 444 kts | 214° |
| 2026-05-05 06:58 | 30.18505 | 119.88512 | 32086 ft | 444 kts | 214° |
| 2026-05-05 06:58 | 30.13150 | 119.84958 | 32087 ft | 444 kts | 214° |
| 2026-05-05 06:59 | 30.07792 | 119.81407 | 32090 ft | 445 kts | 214° |
| 2026-05-05 06:59 | 30.02414 | 119.77848 | 32089 ft | 446 kts | 214° |
| 2026-05-05 07:00 | 29.97061 | 119.74248 | 32092 ft | 445 kts | 214° |
| 2026-05-05 07:00 | 29.91720 | 119.70640 | 32093 ft | 445 kts | 214° |
| 2026-05-05 07:01 | 29.86376 | 119.67045 | 32093 ft | 445 kts | 214° |
| 2026-05-05 07:01 | 29.81133 | 119.63295 | 32085 ft | 442 kts | 218° |
| 2026-05-05 07:02 | 29.76106 | 119.59252 | 32089 ft | 440 kts | 219° |
| 2026-05-05 07:02 | 29.71088 | 119.55221 | 32093 ft | 440 kts | 219° |
| 2026-05-05 07:03 | 29.66030 | 119.51232 | 32097 ft | 442 kts | 218° |
| 2026-05-05 07:03 | 29.61393 | 119.46654 | 32087 ft | 438 kts | 229° |
| 2026-05-05 07:04 | 29.57260 | 119.41545 | 32092 ft | 435 kts | 230° |
| 2026-05-05 07:04 | 29.53214 | 119.36378 | 32088 ft | 434 kts | 231° |
| 2026-05-05 07:05 | 29.49182 | 119.31218 | 32087 ft | 434 kts | 231° |
| 2026-05-05 07:05 | 29.45147 | 119.26063 | 32087 ft | 434 kts | 231° |
| 2026-05-05 07:06 | 29.41100 | 119.20918 | 32085 ft | 436 kts | 231° |
| 2026-05-05 07:06 | 29.37721 | 119.16627 | 32087 ft | 436 kts | 231° |
| 2026-05-05 07:07 | 29.33650 | 119.11480 | 32089 ft | 436 kts | 231° |
| 2026-05-05 07:07 | 29.29577 | 119.06340 | 32085 ft | 436 kts | 231° |
| 2026-05-05 07:08 | 29.25519 | 119.01222 | 32082 ft | 436 kts | 231° |
| 2026-05-05 07:08 | 29.21449 | 118.96073 | 32077 ft | 435 kts | 231° |
| 2026-05-05 07:09 | 29.17381 | 118.90939 | 32083 ft | 436 kts | 231° |
| 2026-05-05 07:09 | 29.13285 | 118.85825 | 32069 ft | 437 kts | 230° |
| 2026-05-05 07:10 | 29.09171 | 118.80694 | 32078 ft | 437 kts | 231° |
| 2026-05-05 07:10 | 29.05085 | 118.75554 | 32078 ft | 436 kts | 231° |
| 2026-05-05 07:11 | 29.01035 | 118.70478 | 32077 ft | 433 kts | 231° |
| 2026-05-05 07:11 | 28.96969 | 118.65427 | 32086 ft | 432 kts | 231° |
| 2026-05-05 07:12 | 28.92887 | 118.60344 | 32070 ft | 436 kts | 231° |
| 2026-05-05 07:12 | 28.88778 | 118.55226 | 32071 ft | 437 kts | 231° |
| 2026-05-05 07:13 | 28.84665 | 118.50110 | 32073 ft | 437 kts | 231° |
| 2026-05-05 07:13 | 28.80580 | 118.45009 | 32051 ft | 434 kts | 231° |
| 2026-05-05 07:14 | 28.76504 | 118.39963 | 32069 ft | 432 kts | 231° |
| 2026-05-05 07:14 | 28.72433 | 118.34932 | 32073 ft | 433 kts | 231° |
| 2026-05-05 07:15 | 28.68337 | 118.29863 | 32070 ft | 436 kts | 231° |
| 2026-05-05 07:15 | 28.64221 | 118.24775 | 32072 ft | 436 kts | 231° |
| 2026-05-05 07:16 | 28.60121 | 118.19717 | 32067 ft | 433 kts | 231° |
| 2026-05-05 07:16 | 28.56046 | 118.14693 | 32065 ft | 432 kts | 231° |
| 2026-05-05 07:17 | 28.51999 | 118.09708 | 32066 ft | 432 kts | 231° |
| 2026-05-05 07:17 | 28.47922 | 118.04689 | 32064 ft | 433 kts | 231° |
| 2026-05-05 07:18 | 28.43817 | 117.99641 | 32046 ft | 435 kts | 231° |
| 2026-05-05 07:18 | 28.39699 | 117.94617 | 32057 ft | 433 kts | 230° |
| 2026-05-05 07:19 | 28.35526 | 117.89695 | 32074 ft | 433 kts | 230° |
| 2026-05-05 07:19 | 28.31344 | 117.84794 | 32069 ft | 433 kts | 230° |
| 2026-05-05 07:20 | 28.27158 | 117.79875 | 32076 ft | 433 kts | 230° |
| 2026-05-05 07:20 | 28.22978 | 117.74955 | 32070 ft | 433 kts | 230° |
| 2026-05-05 07:21 | 28.20906 | 117.72516 | 32073 ft | 432 kts | 230° |